createdAt,value
2023-02-02T00:01:51.308Z,9.90
2023-02-02T00:04:24.992Z,10.77
2023-02-02T00:06:54.909Z,8.07
2023-02-02T00:09:26.403Z,5.97
2023-02-02T00:12:00.479Z,5.93
2023-02-02T00:14:30.535Z,6.77
2023-02-02T00:17:03.822Z,6.57
2023-02-02T00:19:33.617Z,5.90
2023-02-02T00:22:04.045Z,4.13
2023-02-02T00:24:35.733Z,4.63
2023-02-02T00:30:18.592Z,10.90
2023-02-02T00:32:48.919Z,8.67
2023-02-02T00:35:17.974Z,4.30
2023-02-02T00:38:11.113Z,9.93
2023-02-02T00:40:45.668Z,6.07
2023-02-02T00:43:16.298Z,5.00
2023-02-02T00:45:45.511Z,5.27
2023-02-02T00:48:16.090Z,9.77
2023-02-02T00:50:45.091Z,6.27
2023-02-02T00:53:14.053Z,5.53
2023-02-02T00:55:47.887Z,5.97
2023-02-02T00:58:18.510Z,7.87
2023-02-02T01:00:49.720Z,12.60
2023-02-02T01:03:18.775Z,4.63
2023-02-02T01:05:48.035Z,7.20
2023-02-02T01:08:17.007Z,11.87
2023-02-02T01:10:45.804Z,5.47
2023-02-02T01:13:17.076Z,7.93
2023-02-02T01:15:47.571Z,4.70
2023-02-02T01:18:19.758Z,6.00
2023-02-02T01:20:48.655Z,9.40
2023-02-02T01:23:17.562Z,12.07
2023-02-02T01:25:47.367Z,13.97
2023-02-02T01:28:16.280Z,11.77
2023-02-02T01:30:45.236Z,17.17
2023-02-02T01:33:15.187Z,15.73
2023-02-02T01:36:00.602Z,18.63
2023-02-02T01:38:27.343Z,19.77
2023-02-02T01:40:57.871Z,18.03
2023-02-02T01:43:34.133Z,16.20
2023-02-02T01:46:04.697Z,17.37
2023-02-02T01:48:36.279Z,13.47
2023-02-02T01:51:09.808Z,10.30
2023-02-02T01:53:44.995Z,12.47
2023-02-02T01:56:14.599Z,9.83
2023-02-02T01:58:45.189Z,7.47
2023-02-02T02:01:15.478Z,9.33
2023-02-02T02:03:44.706Z,9.63
2023-02-02T02:06:18.749Z,8.73
2023-02-02T02:09:03.856Z,9.93
2023-02-02T02:11:34.279Z,8.10
2023-02-02T02:14:24.863Z,8.07
2023-02-02T02:17:15.490Z,8.07
2023-02-02T02:20:41.360Z,7.40
2023-02-02T02:23:50.393Z,10.43
2023-02-02T02:26:40.247Z,10.00
2023-02-02T02:29:39.521Z,10.17
2023-02-02T02:32:27.802Z,6.67
2023-02-02T02:35:26.664Z,5.23
2023-02-02T02:37:58.664Z,6.67
2023-02-02T02:40:36.602Z,6.30
2023-02-02T02:43:11.045Z,10.10
2023-02-02T02:45:42.864Z,6.07
2023-02-02T02:48:13.018Z,9.57
2023-02-02T02:50:42.356Z,8.73
2023-02-02T02:53:17.114Z,12.10
2023-02-02T02:55:58.209Z,9.80
2023-02-02T02:58:30.287Z,7.83
2023-02-02T03:01:11.238Z,7.43
2023-02-02T03:03:49.096Z,7.97
2023-02-02T03:06:39.324Z,8.07
2023-02-02T03:09:11.220Z,9.80
2023-02-02T03:11:40.324Z,5.10
2023-02-02T03:14:18.419Z,7.87
2023-02-02T03:16:59.369Z,5.03
2023-02-02T03:19:44.040Z,5.07
2023-02-02T03:22:14.977Z,6.03
2023-02-02T03:27:52.679Z,6.70
2023-02-02T03:31:34.321Z,8.63
2023-02-02T03:35:13.065Z,7.13
2023-02-02T03:37:03.444Z,7.30
2023-02-02T03:39:39.664Z,7.80
2023-02-02T03:45:41.151Z,8.47
2023-02-02T03:48:14.901Z,7.97
2023-02-02T03:50:55.706Z,10.37
2023-02-02T03:53:30.576Z,8.33
2023-02-02T03:58:51.410Z,7.40
2023-02-02T04:05:41.992Z,7.57
2023-02-02T04:08:41.804Z,9.30
2023-02-02T04:11:19.700Z,10.90
2023-02-02T04:13:58.057Z,10.67
2023-02-02T04:19:33.255Z,8.60
2023-02-02T04:22:13.018Z,8.83
2023-02-02T04:25:03.814Z,7.87
2023-02-02T04:30:51.440Z,10.40
2023-02-02T04:33:42.016Z,9.17
2023-02-02T04:36:24.210Z,8.77
2023-02-02T04:42:13.757Z,9.97
2023-02-02T04:48:12.582Z,7.60
2023-02-02T05:00:50.954Z,13.67
2023-02-02T05:06:20.039Z,10.33
2023-02-02T05:12:12.635Z,15.07
2023-02-02T05:24:32.816Z,11.23
2023-02-02T05:27:31.617Z,9.43
2023-02-02T05:29:52.065Z,17.30
2023-02-02T05:32:44.545Z,8.83
2023-02-02T05:35:23.142Z,9.43
2023-02-02T05:38:39.001Z,10.30
2023-02-02T05:50:20.228Z,12.30
2023-02-02T05:59:18.683Z,11.13
2023-02-02T06:02:21.693Z,13.90
2023-02-02T06:33:14.951Z,14.10
2023-02-02T06:38:38.279Z,15.40
2023-02-02T06:43:24.752Z,18.50
2023-02-02T06:50:15.636Z,18.07
2023-02-02T06:52:58.311Z,18.60
2023-02-02T06:55:27.482Z,19.90
2023-02-02T06:58:00.264Z,21.23
2023-02-02T07:00:30.865Z,13.40
2023-02-02T07:03:01.284Z,27.23
2023-02-02T07:05:30.863Z,26.30
2023-02-02T07:07:59.735Z,21.50
2023-02-02T07:11:14.156Z,25.77
2023-02-02T07:13:06.151Z,19.23
2023-02-02T07:15:38.495Z,23.17
2023-02-02T07:18:09.341Z,28.60
2023-02-02T07:20:38.491Z,27.80
2023-02-02T07:23:08.823Z,26.40
2023-02-02T07:25:48.358Z,28.53
2023-02-02T07:28:17.398Z,23.47
2023-02-02T07:30:59.533Z,49.70
2023-02-02T07:33:28.854Z,27.70
2023-02-02T07:36:04.598Z,27.73
2023-02-02T07:38:37.808Z,24.07
2023-02-02T07:48:09.579Z,26.50
2023-02-02T07:50:46.002Z,25.73
2023-02-02T07:59:13.105Z,23.77
2023-02-02T08:01:53.958Z,17.60
2023-02-02T08:04:24.475Z,25.93
2023-02-02T08:07:00.256Z,23.43
2023-02-02T08:09:45.114Z,24.83
2023-02-02T08:22:49.467Z,27.77
2023-02-02T09:03:07.898Z,12.40
2023-02-02T09:49:25.946Z,15.47
2023-02-02T09:54:46.984Z,70.93
2023-02-02T10:05:45.584Z,10.90
2023-02-02T10:31:37.658Z,11.00
2023-02-02T10:33:58.391Z,35.10
2023-02-02T10:36:41.111Z,11.20
2023-02-02T10:39:13.468Z,7.17
2023-02-02T10:42:11.090Z,6.43
2023-02-02T10:44:47.346Z,5.43
2023-02-02T10:47:26.754Z,9.63
2023-02-02T10:53:09.449Z,7.27
2023-02-02T10:55:53.761Z,9.33
2023-02-02T10:58:32.978Z,10.40
2023-02-02T11:01:07.079Z,10.07
2023-02-02T11:03:45.432Z,9.63
2023-02-02T11:06:34.129Z,8.33
2023-02-02T11:09:06.429Z,6.57
2023-02-02T11:11:45.332Z,11.03
2023-02-02T11:14:20.747Z,4.03
2023-02-02T11:16:52.713Z,6.87
2023-02-02T11:19:26.469Z,11.03
2023-02-02T11:22:06.052Z,8.13
2023-02-02T11:24:50.121Z,5.43
2023-02-02T11:27:37.111Z,5.80
2023-02-02T11:30:23.406Z,7.00
2023-02-02T11:32:52.877Z,5.00
2023-02-02T11:35:27.321Z,5.50
2023-02-02T11:38:09.272Z,6.43
2023-02-02T11:40:49.371Z,6.77
2023-02-02T11:43:35.079Z,6.07
2023-02-02T11:46:06.888Z,3.53
2023-02-02T11:48:38.826Z,3.83
2023-02-02T11:51:09.369Z,7.60
2023-02-02T11:53:49.904Z,6.83
2023-02-02T11:56:25.625Z,6.90
2023-02-02T12:05:47.525Z,11.63
2023-02-02T12:14:26.334Z,6.63
2023-02-02T12:18:57.009Z,8.20
2023-02-02T12:21:47.137Z,7.70
2023-02-02T12:24:43.823Z,8.13
2023-02-02T12:27:39.716Z,10.87
2023-02-02T12:30:21.767Z,6.87
2023-02-02T12:33:21.163Z,6.57
2023-02-02T12:36:13.125Z,5.13
2023-02-02T12:38:55.978Z,2.87
2023-02-02T12:41:43.445Z,4.60
2023-02-02T12:44:18.383Z,7.03
2023-02-02T12:50:39.379Z,2.00
2023-02-02T12:53:14.260Z,4.33
2023-02-02T12:56:13.253Z,3.20
2023-02-02T12:59:01.785Z,9.17
2023-02-02T13:01:49.145Z,5.33
2023-02-02T13:04:58.448Z,4.50
2023-02-02T13:07:39.253Z,5.67
2023-02-02T13:13:38.164Z,6.60
2023-02-02T13:16:26.006Z,3.50
2023-02-02T13:19:28.033Z,4.73
2023-02-02T13:22:00.124Z,5.80
2023-02-02T13:24:39.310Z,6.73
2023-02-02T13:58:02.757Z,2.63
2023-02-02T14:00:47.799Z,5.13
2023-02-02T14:06:17.729Z,4.07
2023-02-02T14:08:55.450Z,4.57
2023-02-02T14:11:39.538Z,2.80
2023-02-02T14:14:29.031Z,6.23
2023-02-02T14:16:58.025Z,4.03
2023-02-02T14:19:41.710Z,6.73
2023-02-02T14:22:17.001Z,6.83
2023-02-02T14:25:44.538Z,4.53
2023-02-02T14:28:16.262Z,10.30
2023-02-02T14:30:45.429Z,2.90
2023-02-02T14:33:39.971Z,3.70
2023-02-02T14:39:15.353Z,4.37
2023-02-02T14:42:07.506Z,4.03
2023-02-02T14:44:37.804Z,5.07
2023-02-02T14:47:09.380Z,5.07
2023-02-02T14:49:39.591Z,4.43
2023-02-02T14:52:13.604Z,5.97
2023-02-02T14:54:45.991Z,5.60
2023-02-02T14:57:31.185Z,6.70
2023-02-02T15:00:01.847Z,7.90
2023-02-02T15:02:39.117Z,7.07
2023-02-02T15:15:44.701Z,5.10
2023-02-02T15:18:22.081Z,8.13
2023-02-02T15:20:53.398Z,7.03
2023-02-02T15:23:43.714Z,3.00
2023-02-02T15:26:32.740Z,2.87
2023-02-02T15:29:17.467Z,2.83
2023-02-02T15:31:54.151Z,4.17
2023-02-02T15:34:36.693Z,3.63
2023-02-02T15:37:09.567Z,2.80
2023-02-02T15:39:50.560Z,3.47
2023-02-02T15:42:51.260Z,3.77
2023-02-02T15:45:42.427Z,1.60
2023-02-02T15:48:25.097Z,6.53
2023-02-02T15:50:58.555Z,5.43
2023-02-02T15:53:52.078Z,8.40
2023-02-02T16:00:44.806Z,5.20
2023-02-02T16:09:57.473Z,6.47
2023-02-02T16:12:29.178Z,5.27
2023-02-02T16:15:05.702Z,4.83
2023-02-02T16:17:48.215Z,3.47
2023-02-02T16:20:18.543Z,4.63
2023-02-02T16:22:51.238Z,3.80
2023-02-02T16:25:23.783Z,4.30
2023-02-02T16:27:55.145Z,4.27
2023-02-02T16:30:34.855Z,2.83
2023-02-02T16:33:32.518Z,3.23
2023-02-02T16:36:07.941Z,4.97
2023-02-02T16:38:40.954Z,5.33
2023-02-02T16:53:39.490Z,6.17
2023-02-02T16:59:43.921Z,6.93
2023-02-02T17:02:35.411Z,5.50
2023-02-02T17:22:18.314Z,4.97
2023-02-02T17:32:03.193Z,7.37
2023-02-02T17:34:31.842Z,4.70
2023-02-02T17:37:13.407Z,6.37
2023-02-02T17:40:18.254Z,4.37
2023-02-02T17:46:38.306Z,6.30
2023-02-02T18:33:34.967Z,5.20
2023-02-02T18:48:59.197Z,5.57
2023-02-02T18:51:54.147Z,7.30
2023-02-02T18:54:26.124Z,6.17
2023-02-02T19:00:25.956Z,6.43
2023-02-02T19:02:54.657Z,6.10
2023-02-02T19:05:41.316Z,6.83
2023-02-02T19:08:10.049Z,5.10
2023-02-02T19:10:40.407Z,6.03
2023-02-02T19:13:22.214Z,6.77
2023-02-02T19:15:55.493Z,4.70
2023-02-02T19:18:36.429Z,10.33
2023-02-02T19:21:17.636Z,6.47
2023-02-02T19:26:37.660Z,4.87
2023-02-02T19:29:10.724Z,9.57
2023-02-02T19:31:41.648Z,5.47
2023-02-02T19:37:45.724Z,7.87
2023-02-02T20:52:32.459Z,8.17
2023-02-02T20:58:01.219Z,6.80
2023-02-02T21:00:37.156Z,6.73
2023-02-02T21:08:53.645Z,4.67
2023-02-02T21:09:45.414Z,8.53
2023-02-02T21:12:18.797Z,9.97
2023-02-02T21:15:01.291Z,7.13
2023-02-02T21:17:37.384Z,9.50
2023-02-02T21:24:05.691Z,10.97
2023-02-02T21:36:43.796Z,9.00
2023-02-02T21:39:42.686Z,11.00
2023-02-02T21:42:27.970Z,9.10
2023-02-02T21:52:30.141Z,9.07
2023-02-02T22:01:34.125Z,7.80
2023-02-02T22:04:36.346Z,5.93
2023-02-02T22:07:31.034Z,6.40
2023-02-02T22:10:36.046Z,6.53
2023-02-02T22:13:28.461Z,8.37
2023-02-02T22:16:15.071Z,5.60
2023-02-02T22:21:55.573Z,8.67
2023-02-02T22:24:34.691Z,12.47
2023-02-02T22:27:09.164Z,17.47
2023-02-02T22:29:43.610Z,14.27
2023-02-02T22:32:29.746Z,11.27
2023-02-02T22:38:24.981Z,7.03
2023-02-02T22:41:00.963Z,7.83
2023-02-02T22:43:40.398Z,8.47
2023-02-02T22:50:04.264Z,5.90
2023-02-02T22:52:42.997Z,7.90
2023-02-02T22:55:41.663Z,6.60
2023-02-02T22:58:12.171Z,9.60
2023-02-02T23:04:25.759Z,6.73
2023-02-02T23:07:00.687Z,5.67
2023-02-02T23:13:07.629Z,7.00
2023-02-02T23:15:38.569Z,8.10
2023-02-02T23:21:50.520Z,10.07
2023-02-02T23:24:44.349Z,6.90
2023-02-02T23:27:04.687Z,10.07
2023-02-02T23:29:36.459Z,6.90
2023-02-02T23:32:14.078Z,7.20
2023-02-02T23:34:50.590Z,9.27
2023-02-02T23:37:26.731Z,8.33
2023-02-02T23:40:03.735Z,10.63
2023-02-02T23:46:42.892Z,4.87
2023-02-02T23:49:21.093Z,4.47
2023-02-02T23:51:50.167Z,6.07
2023-02-02T23:54:23.375Z,5.73
2023-02-02T23:57:00.128Z,5.30
2023-02-02T23:59:28.900Z,5.27
